Time;durP1;ratioP1;P1;durP2;ratioP2;P2;SDS_P1;SDS_P2;PMS_P1;PMS_P2;Temp;Humidity;BMP_temperature;BMP_pressure;BME280_temperature;BME280_humidity;BME280_pressure;Samples;Min_cycle;Max_cycle;Signal;HPM_P1;HPM_P2
2021/05/14 00:02:24;;;;;;;6.82;4.28;;;;;;;;;;5091529;28;20020;-19
2021/05/14 00:04:50;;;;;;;13.27;4.60;;;;;;;;;;5092613;28;20032;-19
2021/05/14 00:07:16;;;;;;;10.00;5.88;;;;;;;;;;5092727;28;20089;-18
2021/05/14 00:09:41;;;;;;;6.80;4.53;;;;;;;;;;5092737;28;20032;-19
2021/05/14 00:12:07;;;;;;;4.75;2.70;;;;;;;;;;5092512;28;20090;-19
2021/05/14 00:14:32;;;;;;;7.57;4.00;;;;;;;;;;5092876;28;20028;-19
2021/05/14 00:16:57;;;;;;;5.35;3.10;;;;;;;;;;5092498;28;20016;-19
2021/05/14 00:19:23;;;;;;;7.43;2.63;;;;;;;;;;5092819;28;20540;-19
2021/05/14 00:21:48;;;;;;;5.93;3.60;;;;;;;;;;5092749;28;20019;-18
2021/05/14 00:24:13;;;;;;;3.80;2.67;;;;;;;;;;5092563;28;20035;-18
2021/05/14 00:26:39;;;;;;;13.52;2.97;;;;;;;;;;5092212;28;20122;-19
2021/05/14 00:29:04;;;;;;;5.78;3.47;;;;;;;;;;5092365;28;20028;-19
2021/05/14 00:31:29;;;;;;;6.60;3.53;;;;;;;;;;5092484;28;20386;-19
2021/05/14 00:33:55;;;;;;;5.82;3.17;;;;;;;;;;5092221;28;20060;-18
2021/05/14 00:36:20;;;;;;;7.30;3.70;;;;;;;;;;5092457;28;20093;-19
2021/05/14 00:38:46;;;;;;;5.05;3.13;;;;;;;;;;5092558;28;20143;-19
2021/05/14 00:41:11;;;;;;;6.18;3.40;;;;;;;;;;5092253;28;20099;-19
2021/05/14 00:43:36;;;;;;;5.82;3.47;;;;;;;;;;5096092;28;20414;-18
2021/05/14 00:46:02;;;;;;;4.90;2.30;;;;;;;;;;5096388;28;20028;-18
2021/05/14 00:48:28;;;;;;;4.68;3.63;;;;;;;;;;5096409;28;20020;-18
2021/05/14 00:50:54;;;;;;;4.65;3.53;;;;;;;;;;5096412;28;20016;-19
2021/05/14 00:53:19;;;;;;;8.57;4.35;;;;;;;;;;5112012;28;20078;-18
2021/05/14 00:55:45;;;;;;;6.00;3.40;;;;;;;;;;5096655;28;20023;-17
2021/05/14 00:58:10;;;;;;;4.65;3.38;;;;;;;;;;5094843;28;20395;-18
2021/05/14 01:00:35;;;;;;;9.40;3.58;;;;;;;;;;5096333;28;20067;-19
2021/05/14 01:03:01;;;;;;;7.18;4.15;;;;;;;;;;5096476;28;20052;-18
2021/05/14 01:05:27;;;;;;;6.70;4.03;;;;;;;;;;5096047;28;20515;-18
2021/05/14 01:07:54;;;;;;;9.57;3.67;;;;;;;;;;5096027;28;20028;-19
2021/05/14 01:10:21;;;;;;;6.65;3.72;;;;;;;;;;5096131;28;20039;-18
2021/05/14 01:12:46;;;;;;;8.02;4.72;;;;;;;;;;5096145;28;20020;-18
2021/05/14 01:15:12;;;;;;;5.57;3.55;;;;;;;;;;5095950;28;20023;-18
2021/05/14 01:17:37;;;;;;;9.18;4.82;;;;;;;;;;5095756;28;20032;-18
2021/05/14 01:20:03;;;;;;;7.88;4.65;;;;;;;;;;5096139;28;20481;-18
2021/05/14 01:22:29;;;;;;;7.22;3.95;;;;;;;;;;5095942;28;20505;-18
2021/05/14 01:24:55;;;;;;;6.93;4.30;;;;;;;;;;5095780;28;20056;-19
2021/05/14 01:27:20;;;;;;;4.95;3.45;;;;;;;;;;5095734;28;20402;-18
2021/05/14 01:29:46;;;;;;;5.75;3.80;;;;;;;;;;5095618;28;20107;-18
2021/05/14 01:32:12;;;;;;;6.53;3.72;;;;;;;;;;5094473;28;20042;-18
2021/05/14 01:34:38;;;;;;;6.57;3.83;;;;;;;;;;5095721;28;20016;-18
2021/05/14 01:37:03;;;;;;;15.55;4.28;;;;;;;;;;5095700;28;20438;-18
2021/05/14 01:39:28;;;;;;;8.32;4.43;;;;;;;;;;5095768;28;20020;-19
2021/05/14 01:41:54;;;;;;;7.60;4.47;;;;;;;;;;5095312;28;20501;-18
2021/05/14 01:44:20;;;;;;;8.00;4.55;;;;;;;;;;5095659;28;20018;-18
2021/05/14 01:46:46;;;;;;;6.72;3.97;;;;;;;;;;5095221;28;20486;-18
2021/05/14 01:49:11;;;;;;;5.70;3.92;;;;;;;;;;5095396;28;20065;-18
2021/05/14 01:51:37;;;;;;;8.05;4.05;;;;;;;;;;5095272;28;20145;-18
2021/05/14 01:54:02;;;;;;;8.63;4.53;;;;;;;;;;5094684;28;20024;-18
2021/05/14 01:56:28;;;;;;;8.35;3.65;;;;;;;;;;5095451;28;20032;-18
2021/05/14 01:58:53;;;;;;;13.23;4.20;;;;;;;;;;5095241;28;20016;-18
2021/05/14 02:01:19;;;;;;;6.97;4.15;;;;;;;;;;5095042;28;20032;-18
2021/05/14 02:03:44;;;;;;;6.00;3.97;;;;;;;;;;5093820;28;20020;-18
2021/05/14 02:06:09;;;;;;;15.07;3.88;;;;;;;;;;5094813;28;20024;-18
2021/05/14 02:08:35;;;;;;;7.30;3.88;;;;;;;;;;5094924;28;20035;-18
2021/05/14 02:11:02;;;;;;;6.07;3.67;;;;;;;;;;5094927;28;20028;-18
2021/05/14 02:13:28;;;;;;;6.82;3.35;;;;;;;;;;5095053;28;20024;-18
2021/05/14 02:15:53;;;;;;;5.82;3.90;;;;;;;;;;5094746;28;20028;-18
2021/05/14 02:18:19;;;;;;;7.93;3.63;;;;;;;;;;5094739;28;20048;-18
2021/05/14 02:20:44;;;;;;;4.82;2.72;;;;;;;;;;5094625;28;20024;-18
2021/05/14 02:23:09;;;;;;;4.97;3.25;;;;;;;;;;5094702;28;20024;-19
2021/05/14 02:25:35;;;;;;;10.95;3.63;;;;;;;;;;5094395;28;20050;-18
2021/05/14 02:28:01;;;;;;;7.40;3.72;;;;;;;;;;5093592;28;20077;-19
2021/05/14 02:30:26;;;;;;;9.00;4.50;;;;;;;;;;5094355;28;20051;-19
2021/05/14 02:32:51;;;;;;;6.03;3.25;;;;;;;;;;5094666;28;20352;-19
2021/05/14 02:35:17;;;;;;;7.53;3.47;;;;;;;;;;5094440;28;20506;-23
2021/05/14 02:37:43;;;;;;;5.28;3.03;;;;;;;;;;5094678;28;20019;-18
2021/05/14 02:40:09;;;;;;;7.40;3.60;;;;;;;;;;5094523;28;20038;-19
2021/05/14 02:42:34;;;;;;;4.85;3.30;;;;;;;;;;5094180;28;20012;-19
2021/05/14 02:45:00;;;;;;;5.53;3.20;;;;;;;;;;5094190;28;20489;-19
2021/05/14 02:47:26;;;;;;;5.28;3.08;;;;;;;;;;5094086;28;20028;-19
2021/05/14 02:49:51;;;;;;;4.07;2.67;;;;;;;;;;5094315;28;20048;-19
2021/05/14 02:52:17;;;;;;;7.53;2.80;;;;;;;;;;5094116;28;20058;-19
2021/05/14 02:54:42;;;;;;;5.57;3.33;;;;;;;;;;5094095;28;20546;-19
2021/05/14 02:57:07;;;;;;;4.70;3.58;;;;;;;;;;5093866;28;20085;-19
2021/05/14 02:59:33;;;;;;;6.35;2.95;;;;;;;;;;5109756;28;20024;-19
2021/05/14 03:01:58;;;;;;;3.85;3.10;;;;;;;;;;5093753;28;20020;-19
2021/05/14 03:04:24;;;;;;;4.93;2.85;;;;;;;;;;5093925;28;20046;-19
2021/05/14 03:06:49;;;;;;;5.13;3.10;;;;;;;;;;5092570;28;20050;-19
2021/05/14 03:09:14;;;;;;;3.65;2.50;;;;;;;;;;5094051;28;20055;-19
2021/05/14 03:11:40;;;;;;;7.85;2.75;;;;;;;;;;5093883;28;20028;-18
2021/05/14 03:14:06;;;;;;;4.15;2.05;;;;;;;;;;5109486;28;20043;-18
2021/05/14 03:16:35;;;;;;;4.47;2.42;;;;;;;;;;5092269;28;20032;-18
2021/05/14 03:19:00;;;;;;;3.63;2.53;;;;;;;;;;5093581;28;20028;-18
2021/05/14 03:21:27;;;;;;;3.90;2.38;;;;;;;;;;5093874;28;20035;-18
2021/05/14 03:23:53;;;;;;;5.93;2.22;;;;;;;;;;5093337;28;20081;-18
2021/05/14 03:26:18;;;;;;;3.30;2.28;;;;;;;;;;5093333;28;20047;-18
2021/05/14 03:28:43;;;;;;;6.68;2.35;;;;;;;;;;5093374;28;20023;-18
2021/05/14 03:31:09;;;;;;;4.03;2.13;;;;;;;;;;5093577;28;20489;-19
2021/05/14 03:33:34;;;;;;;2.47;1.77;;;;;;;;;;5093716;28;20422;-17
2021/05/14 03:35:59;;;;;;;4.72;2.30;;;;;;;;;;5093464;28;20451;-19
2021/05/14 03:38:34;;;;;;;1.95;1.58;;;;;;;;;;5093177;28;20036;-19
2021/05/14 03:41:02;;;;;;;2.60;2.28;;;;;;;;;;5092994;28;20400;-18
2021/05/14 03:43:28;;;;;;;2.58;1.70;;;;;;;;;;5093247;28;20016;-19
2021/05/14 03:45:53;;;;;;;1.73;1.20;;;;;;;;;;5093003;28;20449;-18
2021/05/14 03:48:19;;;;;;;2.65;1.88;;;;;;;;;;5093024;28;20036;-19
2021/05/14 03:50:49;;;;;;;2.65;1.60;;;;;;;;;;5093099;28;20024;-18
2021/05/14 03:53:15;;;;;;;2.13;1.70;;;;;;;;;;5092910;28;20459;-18
2021/05/14 03:55:40;;;;;;;2.20;1.30;;;;;;;;;;5093260;28;20059;-18
2021/05/14 03:58:05;;;;;;;2.33;1.50;;;;;;;;;;5093131;28;20020;-19
2021/05/14 04:00:31;;;;;;;4.78;1.70;;;;;;;;;;5092832;28;20121;-19
2021/05/14 04:02:56;;;;;;;2.97;1.83;;;;;;;;;;5093067;28;20100;-19
2021/05/14 04:05:22;;;;;;;2.83;2.00;;;;;;;;;;5092825;28;20376;-19
2021/05/14 04:07:48;;;;;;;2.33;1.60;;;;;;;;;;5092901;28;20034;-19
2021/05/14 04:10:19;;;;;;;3.28;2.13;;;;;;;;;;5092818;28;20125;-18
2021/05/14 04:15:28;;;;;;;4.05;2.13;;;;;;;;;;5092609;28;20024;-19
2021/05/14 04:17:53;;;;;;;5.15;2.10;;;;;;;;;;5092227;28;20018;-19
2021/05/14 04:20:18;;;;;;;7.60;1.88;;;;;;;;;;5091267;28;20036;-19
2021/05/14 04:22:44;;;;;;;5.47;2.10;;;;;;;;;;5092898;28;20065;-19
2021/05/14 04:25:09;;;;;;;4.55;1.80;;;;;;;;;;5092264;28;20047;-18
2021/05/14 04:27:35;;;;;;;6.90;2.58;;;;;;;;;;5092371;28;20545;-19
2021/05/14 04:30:02;;;;;;;3.92;2.20;;;;;;;;;;5092350;28;20020;-18
2021/05/14 04:32:27;;;;;;;3.47;1.90;;;;;;;;;;5092289;28;20038;-19
2021/05/14 04:34:54;;;;;;;5.05;2.40;;;;;;;;;;5092341;28;20099;-19
2021/05/14 04:37:19;;;;;;;6.28;2.70;;;;;;;;;;5092647;28;20055;-19
2021/05/14 04:39:44;;;;;;;9.05;1.95;;;;;;;;;;5092446;28;20443;-19
2021/05/14 04:42:09;;;;;;;3.33;1.90;;;;;;;;;;5092225;28;20016;-19
2021/05/14 04:44:35;;;;;;;4.15;1.83;;;;;;;;;;5092408;28;20478;-18
2021/05/14 04:47:00;;;;;;;2.55;1.38;;;;;;;;;;5107910;28;20024;-19
2021/05/14 04:49:25;;;;;;;1.85;1.33;;;;;;;;;;5092310;28;20032;-19
2021/05/14 04:51:51;;;;;;;4.72;2.10;;;;;;;;;;5092280;28;20016;-19
2021/05/14 04:54:16;;;;;;;3.13;1.80;;;;;;;;;;5092538;28;20498;-18
2021/05/14 04:56:42;;;;;;;1.77;1.25;;;;;;;;;;5092227;28;20420;-19
2021/05/14 04:59:07;;;;;;;1.48;1.27;;;;;;;;;;5092151;28;20434;-18
2021/05/14 05:01:32;;;;;;;1.85;1.13;;;;;;;;;;5092234;28;20020;-19
2021/05/14 05:03:58;;;;;;;2.17;1.00;;;;;;;;;;5092407;28;20030;-19
2021/05/14 05:06:23;;;;;;;2.55;1.38;;;;;;;;;;5092026;28;20447;-19
2021/05/14 05:08:49;;;;;;;2.08;1.58;;;;;;;;;;5107717;28;20028;-18
2021/05/14 05:11:14;;;;;;;1.77;1.52;;;;;;;;;;5092381;28;20059;-19
2021/05/14 05:13:40;;;;;;;2.67;1.50;;;;;;;;;;5092409;28;20032;-18
2021/05/14 05:16:05;;;;;;;2.10;1.60;;;;;;;;;;5092340;28;20051;-18
2021/05/14 05:18:31;;;;;;;1.23;0.98;;;;;;;;;;5091879;28;20069;-19
2021/05/14 05:20:57;;;;;;;5.00;1.70;;;;;;;;;;5092006;28;20020;-19
2021/05/14 05:23:22;;;;;;;2.70;1.83;;;;;;;;;;5090782;28;20024;-16
2021/05/14 05:25:48;;;;;;;2.78;1.70;;;;;;;;;;5091650;28;20046;-18
2021/05/14 05:28:13;;;;;;;3.30;1.27;;;;;;;;;;5092194;28;20036;-18
2021/05/14 05:30:39;;;;;;;5.25;2.33;;;;;;;;;;5095406;28;20367;-18
2021/05/14 05:33:05;;;;;;;3.50;2.10;;;;;;;;;;5095850;28;20032;-19
2021/05/14 05:35:30;;;;;;;3.47;2.50;;;;;;;;;;5095684;28;20088;-19
2021/05/14 05:37:55;;;;;;;3.35;2.10;;;;;;;;;;5095481;28;20042;-19
2021/05/14 05:40:21;;;;;;;5.18;2.35;;;;;;;;;;5095796;28;20020;-19
2021/05/14 05:42:46;;;;;;;6.03;1.55;;;;;;;;;;5095503;28;20540;-18
2021/05/14 05:45:12;;;;;;;3.25;2.53;;;;;;;;;;5095374;28;20016;-18
2021/05/14 05:47:37;;;;;;;2.10;1.45;;;;;;;;;;5095275;28;20059;-18
2021/05/14 05:50:03;;;;;;;4.90;1.85;;;;;;;;;;5093995;28;20371;-19
2021/05/14 05:52:28;;;;;;;3.72;1.65;;;;;;;;;;5095398;28;20107;-19
2021/05/14 05:54:54;;;;;;;7.90;1.65;;;;;;;;;;5095449;28;20511;-19
2021/05/14 05:57:19;;;;;;;1.92;1.27;;;;;;;;;;5095202;28;20031;-19
2021/05/14 05:59:45;;;;;;;4.25;1.35;;;;;;;;;;5095281;28;20040;-18
2021/05/14 06:02:11;;;;;;;1.65;1.38;;;;;;;;;;5094572;28;20028;-18
2021/05/14 06:04:36;;;;;;;6.07;1.50;;;;;;;;;;5094991;28;20073;-19
2021/05/14 06:07:01;;;;;;;7.10;1.83;;;;;;;;;;5094827;28;20040;-18
2021/05/14 06:09:27;;;;;;;2.00;1.65;;;;;;;;;;5095038;28;20555;-19
2021/05/14 06:11:52;;;;;;;1.63;1.30;;;;;;;;;;5094946;28;20387;-18
2021/05/14 06:14:18;;;;;;;4.07;1.58;;;;;;;;;;5094963;28;20016;-19
2021/05/14 06:16:43;;;;;;;2.20;1.35;;;;;;;;;;5095033;28;20063;-18
2021/05/14 06:19:14;;;;;;;1.17;1.08;;;;;;;;;;5094775;28;20421;-18
2021/05/14 06:21:45;;;;;;;2.17;1.30;;;;;;;;;;5094625;28;20039;-19
2021/05/14 06:24:11;;;;;;;2.83;1.52;;;;;;;;;;5094912;28;20059;-19
2021/05/14 06:26:36;;;;;;;1.85;1.38;;;;;;;;;;5094451;28;20048;-18
2021/05/14 06:29:02;;;;;;;2.28;1.45;;;;;;;;;;5094827;28;20488;-19
2021/05/14 06:31:28;;;;;;;2.90;1.45;;;;;;;;;;5094842;28;20077;-19
2021/05/14 06:33:53;;;;;;;1.38;0.77;;;;;;;;;;5094688;28;20544;-18
2021/05/14 06:36:18;;;;;;;1.45;1.00;;;;;;;;;;5094681;28;20482;-19
2021/05/14 06:38:44;;;;;;;2.08;1.40;;;;;;;;;;5094776;28;20024;-19
2021/05/14 06:41:09;;;;;;;1.20;0.95;;;;;;;;;;5094016;28;20058;-19
2021/05/14 06:43:34;;;;;;;4.22;1.65;;;;;;;;;;5094248;28;20078;-19
2021/05/14 06:46:01;;;;;;;4.63;1.42;;;;;;;;;;5094400;28;20020;-19
2021/05/14 06:48:27;;;;;;;2.35;1.60;;;;;;;;;;5094247;28;20020;-19
2021/05/14 06:50:52;;;;;;;3.60;1.92;;;;;;;;;;5094316;28;20351;-18
2021/05/14 06:53:18;;;;;;;3.80;2.00;;;;;;;;;;5094465;28;20063;-19
2021/05/14 06:55:43;;;;;;;2.67;1.50;;;;;;;;;;5109868;28;20403;-18
2021/05/14 06:58:09;;;;;;;3.78;1.92;;;;;;;;;;5109656;28;20062;-19
2021/05/14 07:00:34;;;;;;;5.63;2.65;;;;;;;;;;5094059;28;20063;-18
2021/05/14 07:02:59;;;;;;;10.13;2.95;;;;;;;;;;5094192;28;20059;-19
2021/05/14 07:05:25;;;;;;;4.82;2.53;;;;;;;;;;5093812;28;20434;-19
2021/05/14 07:07:52;;;;;;;4.65;2.85;;;;;;;;;;5093781;28;20046;-18
2021/05/14 07:10:17;;;;;;;9.35;2.72;;;;;;;;;;5093882;28;20095;-18
2021/05/14 07:12:42;;;;;;;4.07;2.30;;;;;;;;;;5093735;28;20048;-18
2021/05/14 07:15:09;;;;;;;4.65;2.42;;;;;;;;;;5093669;28;20099;-18
2021/05/14 07:17:34;;;;;;;4.80;2.08;;;;;;;;;;5093632;28;20054;-19
2021/05/14 07:19:59;;;;;;;1.63;1.20;;;;;;;;;;5093541;28;20455;-18
2021/05/14 07:22:25;;;;;;;4.20;1.35;;;;;;;;;;5093710;28;20038;-19
2021/05/14 07:24:50;;;;;;;0.70;0.70;;;;;;;;;;5093548;28;20105;-19
2021/05/14 07:27:16;;;;;;;1.52;1.20;;;;;;;;;;5093538;28;20043;-18
2021/05/14 07:29:42;;;;;;;9.48;1.08;;;;;;;;;;5093677;28;20107;-23
2021/05/14 07:32:08;;;;;;;3.72;1.50;;;;;;;;;;5093324;28;20020;-19
2021/05/14 07:34:33;;;;;;;1.90;1.10;;;;;;;;;;5093431;28;20078;-19
2021/05/14 07:36:58;;;;;;;2.95;1.55;;;;;;;;;;5093201;28;20482;-18
2021/05/14 07:39:24;;;;;;;5.57;1.60;;;;;;;;;;5093275;28;20106;-18
2021/05/14 07:41:49;;;;;;;2.53;1.00;;;;;;;;;;5093461;28;20039;-19
2021/05/14 07:44:14;;;;;;;2.28;1.83;;;;;;;;;;5093392;28;20425;-18
2021/05/14 07:46:40;;;;;;;1.55;1.00;;;;;;;;;;5093106;28;20040;-18
2021/05/14 07:49:05;;;;;;;4.53;1.40;;;;;;;;;;5092985;28;20043;-18
2021/05/14 07:51:31;;;;;;;2.55;1.48;;;;;;;;;;5091241;28;20032;-19
2021/05/14 07:53:57;;;;;;;4.47;1.40;;;;;;;;;;5093129;28;20023;-18
2021/05/14 07:56:22;;;;;;;4.28;1.65;;;;;;;;;;5092966;28;20020;-19
2021/05/14 07:58:47;;;;;;;2.38;1.50;;;;;;;;;;5092303;28;20024;-19
2021/05/14 08:01:13;;;;;;;3.25;1.88;;;;;;;;;;4738462;28;10000555;-19
2021/05/14 08:03:38;;;;;;;8.43;2.10;;;;;;;;;;5089080;28;20023;-19
2021/05/14 08:06:04;;;;;;;4.55;1.92;;;;;;;;;;5089007;28;20391;-18
2021/05/14 08:08:33;;;;;;;8.90;1.70;;;;;;;;;;5088867;28;20020;-19
2021/05/14 08:10:59;;;;;;;2.55;1.98;;;;;;;;;;5089025;28;20479;-19
2021/05/14 08:13:26;;;;;;;2.30;1.38;;;;;;;;;;5087350;28;20028;-19
2021/05/14 08:15:52;;;;;;;6.18;2.03;;;;;;;;;;5089774;28;20447;-20
2021/05/14 08:18:18;;;;;;;2.10;1.50;;;;;;;;;;5088171;28;20111;-19
2021/05/14 08:20:43;;;;;;;3.38;1.88;;;;;;;;;;5088543;28;20127;-19
2021/05/14 08:23:09;;;;;;;2.50;1.50;;;;;;;;;;5089166;28;20036;-18
2021/05/14 08:25:35;;;;;;;2.45;1.25;;;;;;;;;;5088604;28;20055;-18
2021/05/14 08:28:01;;;;;;;1.67;1.40;;;;;;;;;;5088661;28;20044;-18
2021/05/14 08:30:27;;;;;;;1.80;1.40;;;;;;;;;;5088644;28;20532;-19
2021/05/14 08:32:52;;;;;;;4.22;1.42;;;;;;;;;;5088994;28;20024;-20
2021/05/14 08:35:17;;;;;;;2.65;1.10;;;;;;;;;;5088983;28;20027;-19
2021/05/14 08:37:46;;;;;;;2.70;1.40;;;;;;;;;;5088648;28;20012;-20
2021/05/14 08:40:12;;;;;;;1.08;0.82;;;;;;;;;;5088934;28;20793;-20
2021/05/14 08:42:38;;;;;;;5.55;1.05;;;;;;;;;;5088840;28;20016;-18
2021/05/14 08:45:04;;;;;;;1.67;0.95;;;;;;;;;;5088734;28;20379;-18
2021/05/14 08:47:30;;;;;;;1.33;0.93;;;;;;;;;;5087527;28;20046;-18
2021/05/14 08:49:58;;;;;;;4.75;1.00;;;;;;;;;;5087239;28;20467;-18
2021/05/14 08:52:24;;;;;;;1.17;0.73;;;;;;;;;;5088481;28;20035;-19
2021/05/14 08:54:49;;;;;;;1.42;1.10;;;;;;;;;;5088757;28;20028;-19
2021/05/14 08:57:15;;;;;;;2.38;1.05;;;;;;;;;;5086768;28;20024;-19
2021/05/14 08:59:41;;;;;;;1.30;0.80;;;;;;;;;;5088689;28;20032;-19
2021/05/14 09:02:07;;;;;;;1.50;0.90;;;;;;;;;;5087889;28;20480;-19
2021/05/14 09:04:33;;;;;;;1.00;0.73;;;;;;;;;;5092194;28;20506;-20
2021/05/14 09:06:59;;;;;;;1.25;0.50;;;;;;;;;;5092470;28;20024;-18
2021/05/14 09:09:24;;;;;;;1.98;0.88;;;;;;;;;;5091209;28;20024;-19
2021/05/14 09:11:54;;;;;;;1.75;1.13;;;;;;;;;;5092096;28;20020;-19
2021/05/14 09:14:32;;;;;;;0.30;0.30;;;;;;;;;;5092001;28;20466;-19
2021/05/14 09:17:05;;;;;;;4.15;1.40;;;;;;;;;;5092511;28;20024;-19
2021/05/14 09:19:31;;;;;;;1.15;0.40;;;;;;;;;;5092076;28;20517;-19
2021/05/14 09:22:08;;;;;;;1.98;0.50;;;;;;;;;;5092340;28;20031;-18
2021/05/14 09:24:34;;;;;;;0.63;0.63;;;;;;;;;;5092175;28;20027;-19
2021/05/14 09:26:59;;;;;;;2.10;0.38;;;;;;;;;;5091940;28;20052;-18
2021/05/14 09:29:38;;;;;;;1.50;0.60;;;;;;;;;;5092282;28;20033;-19
2021/05/14 09:32:19;;;;;;;0.43;0.32;;;;;;;;;;5091920;28;20055;-19
2021/05/14 09:34:49;;;;;;;0.40;0.40;;;;;;;;;;5091987;28;20068;-18
2021/05/14 09:37:18;;;;;;;1.50;0.73;;;;;;;;;;5091650;28;20394;-18
2021/05/14 09:39:43;;;;;;;1.98;0.90;;;;;;;;;;5092001;28;20127;-18
2021/05/14 09:42:09;;;;;;;0.93;0.40;;;;;;;;;;5091499;28;20099;-19
2021/05/14 09:44:35;;;;;;;1.40;0.73;;;;;;;;;;5091411;28;20032;-18
2021/05/14 09:47:01;;;;;;;3.20;1.05;;;;;;;;;;5091463;28;20081;-18
2021/05/14 09:49:29;;;;;;;1.38;0.40;;;;;;;;;;5091781;28;20038;-18
2021/05/14 09:51:56;;;;;;;1.80;0.40;;;;;;;;;;4739894;28;10001519;-20
2021/05/14 09:54:28;;;;;;;0.98;0.30;;;;;;;;;;5090777;28;20020;-20
2021/05/14 09:59:58;;;;;;;0.50;0.30;;;;;;;;;;5091501;28;20032;-20
2021/05/14 10:02:33;;;;;;;2.58;0.60;;;;;;;;;;5091136;28;20098;-20
2021/05/14 10:05:01;;;;;;;1.08;0.52;;;;;;;;;;5090721;28;20024;-19
2021/05/14 10:07:28;;;;;;;0.75;0.40;;;;;;;;;;5090676;28;20031;-19
2021/05/14 10:10:02;;;;;;;0.30;0.20;;;;;;;;;;5090694;28;20035;-19
2021/05/14 10:12:28;;;;;;;0.40;0.40;;;;;;;;;;5091198;28;20475;-19
2021/05/14 10:14:56;;;;;;;0.30;0.30;;;;;;;;;;5090402;28;20012;-19
2021/05/14 10:17:22;;;;;;;0.30;0.30;;;;;;;;;;5094915;28;20050;-19
2021/05/14 10:19:48;;;;;;;0.35;0.35;;;;;;;;;;5095043;28;20462;-19
2021/05/14 10:22:14;;;;;;;0.60;0.60;;;;;;;;;;5094476;28;20046;-18
2021/05/14 10:24:59;;;;;;;0.75;0.30;;;;;;;;;;5094464;28;20093;-18
2021/05/14 10:27:27;;;;;;;0.60;0.30;;;;;;;;;;5094940;28;20364;-18
2021/05/14 10:29:56;;;;;;;0.43;0.35;;;;;;;;;;5094559;28;20032;-19
2021/05/14 10:32:40;;;;;;;0.57;0.30;;;;;;;;;;5093356;28;20367;-18
2021/05/14 10:35:09;;;;;;;0.45;0.40;;;;;;;;;;5110248;28;20030;-18
2021/05/14 10:37:44;;;;;;;0.47;0.30;;;;;;;;;;5110175;28;20024;-18
2021/05/14 10:40:28;;;;;;;0.85;0.30;;;;;;;;;;5094203;28;20036;-18
2021/05/14 10:42:54;;;;;;;0.80;0.28;;;;;;;;;;5094318;28;20027;-19
2021/05/14 10:45:38;;;;;;;0.45;0.38;;;;;;;;;;5093076;28;20070;-18
2021/05/14 10:48:04;;;;;;;0.30;0.30;;;;;;;;;;5094088;28;20478;-18
2021/05/14 10:50:37;;;;;;;0.60;0.43;;;;;;;;;;5094046;28;20019;-18
2021/05/14 10:53:26;;;;;;;0.45;0.43;;;;;;;;;;5093795;28;20024;-18
2021/05/14 10:55:52;;;;;;;0.25;0.25;;;;;;;;;;5094406;28;20036;-18
2021/05/14 10:58:36;;;;;;;0.60;0.30;;;;;;;;;;5093927;28;20477;-19
2021/05/14 11:01:01;;;;;;;0.32;0.32;;;;;;;;;;5092701;28;20471;-18
2021/05/14 11:03:31;;;;;;;2.70;0.60;;;;;;;;;;5093943;28;20020;-18
2021/05/14 11:06:08;;;;;;;1.65;0.30;;;;;;;;;;5093794;28;20032;-18
2021/05/14 11:08:34;;;;;;;1.08;0.60;;;;;;;;;;5094140;28;20040;-18
2021/05/14 11:11:00;;;;;;;1.02;0.20;;;;;;;;;;5093673;28;20123;-19
2021/05/14 11:13:53;;;;;;;0.30;0.20;;;;;;;;;;5109612;28;20024;-18
2021/05/14 11:16:40;;;;;;;1.33;0.30;;;;;;;;;;5094059;28;20030;-18
2021/05/14 11:19:09;;;;;;;1.75;0.30;;;;;;;;;;5092932;28;20030;-18
2021/05/14 11:21:53;;;;;;;1.05;0.43;;;;;;;;;;5093884;28;20375;-18
2021/05/14 11:24:26;;;;;;;2.03;0.38;;;;;;;;;;5093327;28;20032;-19
2021/05/14 11:27:02;;;;;;;0.43;0.30;;;;;;;;;;5092341;28;20043;-18
2021/05/14 11:29:46;;;;;;;0.45;0.40;;;;;;;;;;5093788;28;20032;-19
2021/05/14 11:32:16;;;;;;;0.75;0.20;;;;;;;;;;5093409;28;20462;-18
2021/05/14 11:35:02;;;;;;;1.08;0.30;;;;;;;;;;5092138;28;20042;-19
2021/05/14 11:37:29;;;;;;;0.50;0.32;;;;;;;;;;5093340;28;20016;-18
2021/05/14 11:39:55;;;;;;;2.47;0.35;;;;;;;;;;5092894;28;20023;-18
2021/05/14 11:42:22;;;;;;;2.67;0.28;;;;;;;;;;5093108;28;20028;-18
2021/05/14 11:44:54;;;;;;;0.57;0.30;;;;;;;;;;5093278;28;20020;-19
2021/05/14 11:47:19;;;;;;;0.57;0.40;;;;;;;;;;5092973;28;20186;-18
2021/05/14 11:49:45;;;;;;;0.47;0.40;;;;;;;;;;5093461;28;20112;-18
2021/05/14 11:52:10;;;;;;;0.17;0.17;;;;;;;;;;5092990;28;20115;-18
2021/05/14 11:54:35;;;;;;;0.52;0.30;;;;;;;;;;5093037;28;20031;-18
2021/05/14 11:57:01;;;;;;;2.20;0.38;;;;;;;;;;4738344;27;10000147;-23
2021/05/14 11:59:26;;;;;;;0.70;0.35;;;;;;;;;;5089220;28;20317;-19
2021/05/14 12:01:52;;;;;;;1.58;0.30;;;;;;;;;;5088072;28;20081;-20
2021/05/14 12:04:18;;;;;;;0.20;0.20;;;;;;;;;;5088985;28;20110;-20
2021/05/14 12:06:49;;;;;;;1.02;0.32;;;;;;;;;;5089150;28;20435;-20
2021/05/14 12:09:15;;;;;;;0.63;0.10;;;;;;;;;;5104357;28;20039;-20
2021/05/14 12:11:41;;;;;;;0.32;0.20;;;;;;;;;;5087624;28;20077;-19
2021/05/14 12:14:07;;;;;;;1.10;0.82;;;;;;;;;;5089344;28;20032;-19
2021/05/14 12:16:35;;;;;;;0.22;0.10;;;;;;;;;;5088990;28;20036;-19
2021/05/14 12:19:02;;;;;;;0.20;0.20;;;;;;;;;;5089324;28;20050;-19
2021/05/14 12:21:29;;;;;;;5.15;0.50;;;;;;;;;;5088682;28;20024;-19
2021/05/14 12:23:55;;;;;;;0.50;0.30;;;;;;;;;;5088933;28;20123;-17
2021/05/14 12:26:21;;;;;;;2.22;0.20;;;;;;;;;;5088118;28;20063;-16
2021/05/14 12:28:47;;;;;;;0.90;0.40;;;;;;;;;;5104449;28;20024;-18
2021/05/14 12:31:12;;;;;;;0.65;0.30;;;;;;;;;;5089261;28;20027;-18
2021/05/14 12:33:57;;;;;;;2.08;0.38;;;;;;;;;;5088624;28;20394;-18
2021/05/14 12:36:24;;;;;;;1.65;0.50;;;;;;;;;;5088655;28;20080;-18
2021/05/14 12:38:50;;;;;;;0.30;0.30;;;;;;;;;;5088755;28;20387;-18
2021/05/14 12:41:23;;;;;;;0.30;0.20;;;;;;;;;;5086967;28;20466;-18
2021/05/14 12:43:49;;;;;;;;;;;;;;;;;;5089450;28;20039;-18
2021/05/14 12:46:14;;;;;;;1.88;0.75;;;;;;;;;;5088457;28;20659;-18
2021/05/14 12:48:39;;;;;;;1.02;0.40;;;;;;;;;;5089063;28;20028;-18
2021/05/14 12:51:05;;;;;;;3.72;0.65;;;;;;;;;;5087613;28;20013;-18
2021/05/14 12:53:30;;;;;;;0.20;0.20;;;;;;;;;;5089144;28;20035;-19
2021/05/14 12:55:56;;;;;;;0.32;0.32;;;;;;;;;;5088843;28;20476;-18
2021/05/14 12:58:21;;;;;;;0.32;0.30;;;;;;;;;;5088918;28;20063;-18
2021/05/14 13:00:47;;;;;;;1.30;0.75;;;;;;;;;;5089021;28;20068;-19
2021/05/14 13:03:13;;;;;;;0.40;0.40;;;;;;;;;;5088995;28;20525;-18
2021/05/14 13:05:38;;;;;;;0.40;0.40;;;;;;;;;;5088731;28;20020;-18
2021/05/14 13:08:05;;;;;;;0.93;0.57;;;;;;;;;;5088624;28;20067;-18
2021/05/14 13:10:35;;;;;;;1.23;0.20;;;;;;;;;;5088924;28;20020;-19
2021/05/14 13:13:00;;;;;;;0.20;0.20;;;;;;;;;;5088758;28;20031;-18
2021/05/14 13:15:26;;;;;;;0.55;0.40;;;;;;;;;;5087399;28;20502;-18
2021/05/14 13:17:51;;;;;;;0.65;0.30;;;;;;;;;;5087811;28;20406;-17
2021/05/14 13:20:16;;;;;;;0.75;0.30;;;;;;;;;;5088595;28;20545;-18
2021/05/14 13:22:42;;;;;;;0.20;0.20;;;;;;;;;;5075947;28;20035;-18
2021/05/14 13:25:07;;;;;;;0.10;0.10;;;;;;;;;;5067997;28;20170;-19
2021/05/14 13:27:33;;;;;;;1.52;0.40;;;;;;;;;;5073567;28;20040;-18
2021/05/14 13:29:58;;;;;;;0.20;0.10;;;;;;;;;;5088491;28;20031;-18
2021/05/14 13:32:23;;;;;;;0.65;0.20;;;;;;;;;;5088349;28;20032;-18
2021/05/14 13:34:49;;;;;;;0.10;0.10;;;;;;;;;;5088445;28;20494;-18
2021/05/14 13:37:17;;;;;;;0.20;0.20;;;;;;;;;;5088375;28;20038;-18
2021/05/14 13:39:43;;;;;;;0.45;0.30;;;;;;;;;;5088722;28;20055;-18
2021/05/14 13:42:08;;;;;;;4.18;0.30;;;;;;;;;;5088759;28;20109;-18
2021/05/14 13:44:34;;;;;;;0.30;0.20;;;;;;;;;;5088359;28;20073;-18
2021/05/14 13:46:59;;;;;;;0.10;0.10;;;;;;;;;;5088650;28;20135;-18
2021/05/14 13:49:25;;;;;;;0.32;0.25;;;;;;;;;;5088418;28;20463;-18
2021/05/14 13:51:50;;;;;;;0.17;0.17;;;;;;;;;;5091947;28;20042;-18
2021/05/14 13:54:15;;;;;;;0.38;0.38;;;;;;;;;;5092064;28;20027;-18
2021/05/14 13:56:41;;;;;;;0.95;0.28;;;;;;;;;;5091349;28;20059;-18
2021/05/14 13:59:06;;;;;;;0.43;0.30;;;;;;;;;;5092086;28;20028;-18
2021/05/14 14:01:32;;;;;;;2.75;0.57;;;;;;;;;;5091571;28;20027;-18
2021/05/14 14:04:00;;;;;;;0.30;0.20;;;;;;;;;;5092034;28;20551;-19
2021/05/14 14:06:25;;;;;;;2.70;0.25;;;;;;;;;;5091771;28;20040;-18
2021/05/14 14:08:51;;;;;;;0.98;0.40;;;;;;;;;;5091676;28;20034;-19
2021/05/14 14:11:16;;;;;;;0.20;0.20;;;;;;;;;;5091708;28;20035;-18
2021/05/14 14:13:41;;;;;;;1.23;0.35;;;;;;;;;;5091461;28;20108;-18
2021/05/14 14:16:07;;;;;;;0.20;0.20;;;;;;;;;;5106950;28;20532;-19
2021/05/14 14:18:33;;;;;;;0.13;0.10;;;;;;;;;;5091546;28;20022;-18
2021/05/14 14:20:59;;;;;;;0.40;0.40;;;;;;;;;;5091138;28;20070;-18
2021/05/14 14:23:24;;;;;;;0.20;0.20;;;;;;;;;;5091447;28;20047;-18
2021/05/14 14:25:50;;;;;;;0.20;0.17;;;;;;;;;;5091236;28;20044;-19
2021/05/14 14:28:15;;;;;;;2.05;0.38;;;;;;;;;;5091489;28;20110;-19
2021/05/14 14:30:40;;;;;;;0.88;0.40;;;;;;;;;;5091436;28;20111;-19
2021/05/14 14:33:06;;;;;;;1.75;0.50;;;;;;;;;;5090767;28;20016;-18
2021/05/14 14:35:31;;;;;;;0.32;0.30;;;;;;;;;;5106516;28;20046;-18
2021/05/14 14:37:57;;;;;;;1.35;0.25;;;;;;;;;;5090637;28;20107;-19
2021/05/14 14:40:22;;;;;;;0.40;0.20;;;;;;;;;;5089638;28;20024;-18
2021/05/14 14:42:48;;;;;;;0.20;0.20;;;;;;;;;;5091137;28;20019;-18
2021/05/14 14:45:14;;;;;;;0.30;0.20;;;;;;;;;;5090304;28;20066;-18
2021/05/14 14:47:39;;;;;;;0.20;0.20;;;;;;;;;;5090799;28;20108;-18